LTBH Airport Information

Runway Information
Runway 04 Length 5905 ft width 98 ft
Elevation 12 ft Threshold 0 ft Heading 41
Runway 22 Length 5905 ft Width 98 ft
Elevation 21 ft Threshold 0 ft Heading 221
Airport Frequencies
Type APP Name YESILKOY A Frequency 122.1 MHZ
Type TWR Name TWR Frequency 123.6 MHZ
Airport Navaids
Type VOR-DME Name Canakkale Frequency 111200 KHZ
Type NDB Name Canakkale Frequency 422 KHZ
Airport Weather Information & NOTAM
ADDS - METARS form results

(2255 UTC 27 January 2020)
Data provider http://aviationweather.gov/metar/data/
 
Forecast for: LTBH (CANAKKALE , TR)
Text: TAF LTBH 271940Z 2721/2806 21008KT 9999 -SHRA SCT030 BKN080
Forecast period: 2100 UTC 27 January 2020 to 0600 UTC 28 January 2020
Forecast type: FROM: standard forecast or significant change
Winds: from the SSW (210 degrees) at 9 MPH (8 knots; 4.1 m/s)
Visibility: 6 or more miles 10+ km)
Ceiling: 8000 feet AGL
Clouds: scattered clouds at 3000 feet AGL
broken clouds at 8000 feet AGL
Weather: -SHRA  (light rain showers)